Latest Weather Observations for McArthur River Mine

IDD60801

Issued at 6:31 pm CST Monday 27 April 2015 (issued every 30 minutes, with the page automatically refreshed every 10 minutes)

About weather observations | Map of weather stations | Latest weather observations for NT | Other Formats
Station Details ID: 014704 Name: MCARTHUR RIVER MINE AIRPORT Lat: -16.44 Lon: 136.08 Height: 40.0 m
Data from the previous 72 hours. | See also: Recent months at McArthur River Mine
Date/Time
CST
Temp
°C
App
Temp
°C
Dew
Point
Rel
Hum
%
Delta-T
°C
Wind Press
QNH
hPa
Press
MSL
hPa
Rain
since 9 am
mm
Dir
 
Spd
km/h
Gust
km/h
Spd
kts
Gust
kts
27/06:30pm 27.6 25.0 3.3 21 12.1 SSE 6 9 3 5 1014.1 - 0.0
27/06:00pm 30.7 27.7 1.1 15 14.5 ESE 6 11 3 6 1013.6 1013.3 0.0
27/05:30pm 32.0 28.6 -0.9 12 15.7 ESE 7 13 4 7 1013.3 - 0.0
27/05:00pm 32.3 28.0 -1.9 11 16.1 SSE 11 17 6 9 1013.0 - 0.0
27/04:30pm 32.8 28.9 -1.5 11 16.3 ESE 9 17 5 9 1012.7 - 0.0
27/04:00pm 32.5 28.8 -3.0 10 16.4 ESE 7 15 4 8 1012.5 - 0.0
27/03:30pm 32.7 27.5 -2.9 10 16.5 ESE 15 20 8 11 1012.6 - 0.0
27/03:00pm 32.1 26.8 -3.3 10 16.2 S 15 24 8 13 1012.6 1012.3 0.0
27/02:30pm 32.1 27.6 -3.3 10 16.2 E 11 20 6 11 1012.9 - 0.0
27/02:00pm 32.5 28.0 -3.0 10 16.4 ESE 11 22 6 12 1013.1 - 0.0
27/01:30pm 31.1 25.4 -4.1 10 15.8 ESE 17 26 9 14 1013.7 - 0.0
27/01:00pm 30.8 26.5 -1.9 12 15.2 ESE 11 22 6 12 1014.2 - 0.0
27/12:30pm 29.9 24.7 -2.6 12 14.8 SE 15 22 8 12 1014.8 - 0.0
27/12:00pm 29.2 24.0 -3.1 12 14.5 SE 15 22 8 12 1015.3 1015.0 0.0
27/11:30am 28.6 23.0 -2.5 13 14.1 SE 17 26 9 14 1015.7 - 0.0
27/11:00am 28.5 23.3 -2.6 13 14.0 ESE 15 26 8 14 1016.3 - 0.0
27/10:30am 27.2 21.4 -1.7 15 13.1 SE 19 28 10 15 1016.6 - 0.0
27/10:00am 26.9 21.4 0.6 18 12.4 SE 19 28 10 15 1016.9 - 0.0
27/09:30am 25.4 20.5 -0.6 18 11.9 SE 15 22 8 12 1016.9 - 0.0
27/09:00am 24.7 19.7 1.6 22 10.9 ESE 17 24 9 13 1016.8 1016.6 0.0
27/08:30am 22.6 19.3 2.7 27 9.5 SE 9 15 5 8 1016.9 - 0.0
27/08:00am 20.1 16.8 2.5 31 8.2 S 9 15 5 8 1016.8 - 0.0
27/07:30am 16.9 14.2 3.6 41 6.2 SSW 7 9 4 5 1016.6 - 0.0
27/07:00am 13.4 10.9 4.6 55 4.1 WSW 7 9 4 5 1016.3 - 0.0
27/06:30am 13.6 11.1 4.7 55 4.1 SW 7 9 4 5 1015.9 - 0.0
27/06:00am 14.2 11.0 3.1 47 5.0 SW 9 9 5 5 1015.6 1015.3 0.0
27/05:30am 16.1 13.4 2.5 40 6.1 SW 6 7 3 4 1015.3 - 0.0
27/05:00am 18.3 14.8 1.3 32 7.6 SSW 9 13 5 7 1015.2 - 0.0
27/04:30am 17.5 14.0 1.5 34 7.1 SSW 9 11 5 6 1015.2 - 0.0
27/04:00am 16.9 13.9 1.8 36 6.7 SSW 7 9 4 5 1015.1 - 0.0
27/03:30am 19.5 16.0 1.5 30 8.2 SSE 9 13 5 7 1015.0 - 0.0
27/03:00am 16.0 13.8 3.1 42 5.9 S 4 9 2 5 1015.1 1014.8 0.0
27/02:30am 16.2 13.3 2.6 40 6.1 SSW 7 9 4 5 1015.1 - 0.0
27/02:00am 16.9 14.1 2.1 37 6.7 SW 6 6 3 3 1015.1 - 0.0
27/01:30am 20.5 17.1 -0.7 24 9.3 SSE 7 11 4 6 1015.2 - 0.0
27/01:00am 21.1 16.9 -0.8 23 9.6 S 11 13 6 7 1015.5 - 0.0
27/12:30am 21.5 17.7 -1.1 22 9.9 S 9 13 5 7 1015.7 - 0.0
27/12:00am 20.9 17.3 0.7 26 9.1 S 9 13 5 7 1015.9 1015.7 0.0
 
Date/Time
CST
Temp
°C
App
Temp
°C
Dew
Point
Rel
Hum
%
Delta-T
°C
Wind Press
QNH
hPa
Press
MSL
hPa
Rain
since 9 am
mm
Dir
 
Spd
km/h
Gust
km/h
Spd
kts
Gust
kts
26/11:30pm 17.9 15.4 3.8 39 6.6 S 6 7 3 4 1016.1 - 0.0
26/11:00pm 18.5 16.1 4.3 39 6.8 NNW 6 7 3 4 1016.2 - 0.0
26/10:30pm 19.3 17.8 5.0 39 7.0 WSW 2 6 1 3 1016.2 - 0.0
26/10:00pm 19.9 17.3 4.0 35 7.6 SSW 7 9 4 5 1016.2 - 0.0
26/09:30pm 23.0 20.2 3.0 27 9.6 S 7 9 4 5 1016.1 - 0.0
26/09:00pm 24.8 21.4 1.7 22 11.0 S 9 11 5 6 1015.9 1015.7 0.0
26/08:30pm 23.8 20.5 2.6 25 10.2 SSW 9 11 5 6 1015.6 - 0.0
26/08:00pm 22.1 19.0 3.7 30 8.9 SW 9 9 5 5 1015.2 - 0.0
26/07:30pm 25.9 22.8 1.2 20 11.7 S 7 9 4 5 1014.8 - 0.0
26/07:00pm 27.0 23.8 0.7 18 12.5 SSE 7 9 4 5 1014.4 - 0.0
26/06:30pm 28.0 24.8 0.7 17 13.0 S 7 9 4 5 1013.9 - 0.0
26/06:00pm 29.5 25.7 -0.8 14 14.2 SSE 9 13 5 7 1013.6 1013.3 0.0
26/05:30pm 31.1 26.8 -1.6 12 15.3 SSE 11 17 6 9 1013.4 - 0.0
26/05:00pm 31.3 26.6 -1.5 12 15.4 SE 13 20 7 11 1013.1 - 0.0
26/04:30pm 31.6 27.2 -2.4 11 15.8 SE 11 17 6 9 1013.0 - 0.0
26/04:00pm 31.6 26.8 -2.4 11 15.8 S 13 22 7 12 1012.9 - 0.0
26/03:30pm 31.7 26.2 -2.3 11 15.8 SSW 17 24 9 13 1012.9 - 0.0
26/03:00pm 31.7 26.4 -3.6 10 16.1 SSE 15 28 8 15 1012.9 1012.6 0.0
26/02:30pm 31.6 25.7 -2.4 11 15.8 SSW 19 28 10 15 1013.1 - 0.0
26/02:00pm 30.8 24.8 -3.0 11 15.4 SSE 19 30 10 16 1013.4 - 0.0
26/01:30pm 30.0 23.6 -1.4 13 14.7 S 22 30 12 16 1013.8 - 0.0
26/01:00pm 29.9 24.5 -1.5 13 14.6 S 17 28 9 15 1014.1 - 0.0
26/12:30pm 29.0 24.0 -1.2 14 14.0 SSE 15 24 8 13 1014.6 - 0.0
26/12:00pm 28.2 22.9 -0.9 15 13.5 SSE 17 26 9 14 1015.0 1014.7 0.0
26/11:30am 27.2 21.6 0.1 17 12.7 S 19 28 10 15 1015.7 - 0.0
26/11:00am 26.4 20.6 0.2 18 12.2 SE 20 28 11 15 1016.4 - 0.0
26/10:30am 26.0 20.6 1.3 20 11.7 S 19 33 10 18 1016.7 - 0.0
26/10:00am 24.6 18.7 1.5 22 10.9 S 22 30 12 16 1017.0 - 0.0
26/09:30am 23.8 17.9 1.4 23 10.5 S 22 32 12 17 1017.0 - 0.0
26/09:00am 23.0 16.8 1.9 25 9.9 S 24 32 13 17 1016.9 1016.7 0.0
26/08:30am 22.3 16.9 2.4 27 9.4 SSE 20 30 11 16 1016.7 - 0.0
26/08:00am 21.4 15.6 2.2 28 9.0 S 22 32 12 17 1016.5 - 0.0
26/07:30am 20.8 15.9 2.1 29 8.7 S 17 22 9 12 1016.5 - 0.0
26/07:00am 20.4 15.9 2.3 30 8.4 S 15 26 8 14 1016.1 - 0.0
26/06:30am 20.4 15.9 2.3 30 8.4 S 15 20 8 11 1015.8 - 0.0
26/06:00am 20.6 16.1 2.0 29 8.6 S 15 20 8 11 1015.6 1015.3 0.0
26/05:30am 20.8 17.1 2.1 29 8.7 S 11 13 6 7 1015.3 - 0.0
26/05:00am 21.0 17.2 1.8 28 8.9 S 11 17 6 9 1015.1 - 0.0
26/04:30am 21.5 17.3 1.7 27 9.2 S 13 15 7 8 1014.9 - 0.0
26/04:00am 21.9 17.3 1.5 26 9.4 S 15 20 8 11 1014.7 - 0.0
26/03:30am 22.0 17.8 1.6 26 9.5 S 13 19 7 10 1014.4 - 0.0
26/03:00am 22.3 18.5 1.9 26 9.5 S 11 19 6 10 1014.3 1014.0 0.0
26/02:30am 22.5 19.1 2.1 26 9.6 S 9 13 5 7 1014.3 - 0.0
26/02:00am 22.9 19.2 2.4 26 9.7 S 11 17 6 9 1014.4 - 0.0
26/01:30am 23.2 19.9 2.7 26 9.8 S 9 13 5 7 1014.7 - 0.0
26/01:00am 23.7 20.5 3.1 26 10.0 S 9 11 5 6 1014.9 - 0.0
26/12:30am 24.0 20.8 2.8 25 10.2 SSE 9 11 5 6 1015.0 - 0.0
26/12:00am 24.2 21.4 2.9 25 10.3 SSE 7 11 4 6 1015.0 1014.7 0.0
 
Date/Time
CST
Temp
°C
App
Temp
°C
Dew
Point
Rel
Hum
%
Delta-T
°C
Wind Press
QNH
hPa
Press
MSL
hPa
Rain
since 9 am
mm
Dir
 
Spd
km/h
Gust
km/h
Spd
kts
Gust
kts
25/11:30pm 24.0 20.8 3.3 26 10.1 SSE 9 13 5 7 1015.1 - 0.0
25/11:00pm 21.7 20.0 3.9 31 8.6 S 2 7 1 4 1015.1 - 0.0
25/10:30pm 23.3 20.5 3.3 27 9.7 N 7 9 4 5 1014.9 - 0.0
25/10:00pm 25.6 22.6 1.7 21 11.4 SSE 7 11 4 6 1014.5 - 0.0
25/09:30pm 26.0 22.1 1.3 20 11.7 S 11 15 6 8 1014.0 - 0.0
25/09:00pm 26.2 22.4 1.5 20 11.8 S 11 15 6 8 1014.0 1013.7 0.0
25/08:30pm 26.5 23.1 1.7 20 11.9 S 9 13 5 7 1013.6 - 0.0
25/08:00pm 27.2 23.4 1.6 19 12.3 S 11 15 6 8 1013.2 - 0.0
25/07:30pm 27.5 24.1 1.8 19 12.5 SSE 9 11 5 6 1012.6 - 0.0
25/07:00pm 28.2 25.2 1.7 18 12.9 SSE 7 9 4 5 1012.1 - 0.0
25/06:30pm 29.4 25.9 1.0 16 13.8 SE 9 13 5 7 1011.8 - 0.0
25/06:00pm 31.1 27.3 -0.5 13 15.1 SE 9 13 5 7 1011.2 1010.9 0.0
25/05:30pm 32.6 27.5 -1.7 11 16.2 SE 15 24 8 13 1010.9 - 0.0
25/05:00pm 33.4 27.9 -2.3 10 16.8 SE 17 26 9 14 1010.6 - 0.0
25/04:30pm 33.6 29.2 -2.2 10 16.9 SSE 11 19 6 10 1010.5 - 0.0
25/04:00pm 34.0 28.5 -1.9 10 17.1 SE 17 32 9 17 1010.2 - 0.0
25/03:30pm 33.6 28.1 -2.2 10 16.9 SE 17 26 9 14 1010.3 - 0.0
25/03:00pm 33.6 28.1 -2.2 10 16.9 S 17 26 9 14 1010.3 1010.0 0.0
25/02:30pm 33.5 27.4 -2.3 10 16.9 SSE 20 33 11 18 1010.3 - 0.0
25/02:00pm 33.3 27.2 -2.4 10 16.8 SE 20 30 11 16 1010.6 - 0.0
25/01:30pm 33.1 27.0 -2.6 10 16.7 SSE 20 33 11 18 1011.0 - 0.0
25/01:00pm 33.0 26.9 -4.0 9 16.9 SSE 19 28 10 15 1011.4 - 0.0
25/12:30pm 32.4 25.4 -3.1 10 16.4 S 24 33 13 18 1011.8 - 0.0
25/12:00pm 32.3 26.3 -3.2 10 16.3 ESE 19 32 10 17 1012.3 1012.0 0.0
25/11:30am 31.3 24.6 -3.9 10 15.9 SSE 22 33 12 18 1012.8 - 0.0
25/11:00am 31.2 25.1 -2.7 11 15.6 SSE 20 30 11 16 1013.4 - 0.0
25/10:30am 30.1 23.8 -3.6 11 15.1 SSE 20 33 11 18 1013.7 - 0.0
25/10:00am 29.5 23.3 -2.9 12 14.7 SE 20 37 11 20 1013.8 - 0.0
25/09:30am 28.4 22.3 -2.6 13 14.0 SSE 20 32 11 17 1013.9 - 0.0
25/09:00am 27.0 21.2 -1.8 15 13.0 SSE 19 28 10 15 1013.8 1013.5 0.0
25/08:30am 23.3 20.5 5.2 31 9.1 S 9 13 5 7 1013.8 - 0.0
25/08:00am 20.3 18.4 7.7 44 6.5 WSW 7 9 4 5 1013.5 - 0.0
25/07:30am 17.1 17.0 9.3 60 4.1 CALM 0 0 0 0 1013.3 - 0.0
25/07:00am 15.8 15.9 10.1 69 3.0 CALM 0 0 0 0 1013.1 - 0.0
25/06:30am 15.5 14.4 10.1 70 2.8 WSW 6 7 3 4 1012.6 - 0.0
25/06:25am 15.4 14.4 10.2 71 2.7 WSW 6 7 3 4 1012.5 - 0.0
25/06:06am 15.2 14.0 10.4 73 2.5 W 7 9 4 5 1012.4 - 0.0
25/06:00am 15.2 14.0 10.2 72 2.6 W 7 9 4 5 1012.3 1012.0 0.0
25/05:30am 15.5 14.9 10.3 71 2.7 WSW 4 7 2 4 1012.2 - 0.0
25/05:00am 15.8 14.7 9.9 68 3.1 SW 6 7 3 4 1011.8 - 0.0
25/04:30am 16.3 16.4 10.2 67 3.2 CALM 0 0 0 0 1011.8 - 0.0
25/04:00am 16.6 15.5 10.0 65 3.5 WSW 6 6 3 3 1011.8 - 0.0
25/03:30am 16.6 15.6 10.2 66 3.4 W 6 7 3 4 1011.7 - 0.0
25/03:00am 17.2 16.1 10.1 63 3.8 W 6 7 3 4 1011.7 1011.4 0.0
25/02:30am 17.9 17.1 9.5 58 4.4 WNW 4 6 2 3 1011.8 - 0.0
25/02:00am 18.0 17.6 9.6 58 4.4 WSW 2 7 1 4 1012.0 - 0.0
25/01:30am 18.2 18.1 9.5 57 4.6 CALM 0 0 0 0 1012.2 - 0.0
25/01:00am 18.9 17.7 9.4 54 5.0 SW 6 6 3 3 1012.2 - 0.0
25/12:30am 19.4 19.3 9.6 53 5.2 CALM 0 0 0 0 1012.3 - 0.0
25/12:00am 20.3 20.2 9.5 50 5.8 CALM 0 0 0 0 1012.3 1012.0 0.0
 
Date/Time
CST
Temp
°C
App
Temp
°C
Dew
Point
Rel
Hum
%
Delta-T
°C
Wind Press
QNH
hPa
Press
MSL
hPa
Rain
since 9 am
mm
Dir
 
Spd
km/h
Gust
km/h
Spd
kts
Gust
kts
24/11:34pm 20.5 19.3 9.4 49 5.9 SSW 6 9 3 5 1012.3 - 0.0
24/11:30pm 20.7 19.4 9.3 48 6.1 SSW 6 7 3 4 1012.2 - 0.0
24/11:18pm 20.8 19.9 9.1 47 6.2 SSW 4 7 2 4 1012.1 - 0.0
24/11:00pm 21.6 21.0 8.8 44 6.8 S 2 6 1 3 1012.2 - 0.0
24/10:30pm 22.8 21.3 8.5 40 7.6 NE 6 7 3 4 1012.1 - 0.0
24/10:00pm 23.6 21.9 7.7 36 8.4 NNE 6 7 3 4 1012.3 - 0.0
24/09:30pm 24.9 23.1 8.0 34 9.0 N 7 11 4 6 1012.4 - 0.0
24/09:00pm 25.0 23.3 8.5 35 8.9 NE 7 9 4 5 1012.2 1011.9 0.0
24/08:30pm 24.5 22.5 7.2 33 9.1 NE 7 7 4 4 1011.8 - 0.0
24/08:00pm 24.0 23.0 5.8 31 9.3 CALM 0 0 0 0 1011.1 - 0.0
24/07:30pm 25.3 24.3 5.5 28 10.1 CALM 0 0 0 0 1010.5 - 0.0
24/07:00pm 27.1 25.9 4.8 24 11.4 CALM 0 0 0 0 1010.1 - 0.0

Other Formats:

Comma delimited format used in spreadsheet applications
http://www.bom.gov.au/fwo/IDD60801/IDD60801.94239.axf

JavaScript Object Notation format (JSON) in row-major order
http://www.bom.gov.au/fwo/IDD60801/IDD60801.94239.json